Time;durP1;ratioP1;P1;durP2;ratioP2;P2;SDS_P1;SDS_P2;PMS_P1;PMS_P2;Temp;Humidity;BMP_temperature;BMP_pressure;BME280_temperature;BME280_humidity;BME280_pressure;Samples;Min_cycle;Max_cycle;Signal;HPM_P1;HPM_P2
2021/06/26 00:02:13;;;;;;;5.10;4.70;;;20.70;1.00;;;;;;5051420;28;20885;-78
2021/06/26 00:04:42;;;;;;;5.40;4.90;;;20.60;1.00;;;;;;5049578;28;21056;-78
2021/06/26 00:07:09;;;;;;;6.00;5.60;;;20.60;1.00;;;;;;5052134;28;20465;-78
2021/06/26 00:09:35;;;;;;;5.90;5.30;;;20.70;1.00;;;;;;5054257;28;20451;-78
2021/06/26 00:12:04;;;;;;;7.17;5.67;;;20.60;1.00;;;;;;5052571;28;20536;-78
2021/06/26 00:14:31;;;;;;;6.20;5.60;;;20.70;1.00;;;;;;5051336;28;23907;-78
2021/06/26 00:16:58;;;;;;;6.10;5.60;;;20.60;1.00;;;;;;5052596;28;20472;-78
2021/06/26 00:19:24;;;;;;;5.97;5.40;;;20.60;1.00;;;;;;5051244;28;20513;-77
2021/06/26 00:21:51;;;;;;;5.07;4.67;;;20.60;1.00;;;;;;5049259;28;20461;-77
2021/06/26 00:24:18;;;;;;;5.93;5.30;;;20.50;1.00;;;;;;5050009;28;20443;-77
2021/06/26 00:26:44;;;;;;;5.87;5.37;;;20.50;1.00;;;;;;5055110;28;20539;-77
2021/06/26 00:29:13;;;;;;;5.93;5.47;;;20.50;1.00;;;;;;5054082;28;20448;-78
2021/06/26 00:31:39;;;;;;;6.30;5.70;;;20.40;1.00;;;;;;5054266;28;20479;-77
2021/06/26 00:34:06;;;;;;;5.83;5.33;;;20.40;1.00;;;;;;5050824;28;20449;-77
2021/06/26 00:36:32;;;;;;;6.03;5.43;;;20.30;1.00;;;;;;5050612;28;20431;-78
2021/06/26 00:38:59;;;;;;;6.23;5.63;;;20.30;1.00;;;;;;5049605;28;20525;-77
2021/06/26 00:41:27;;;;;;;5.20;4.80;;;20.30;1.00;;;;;;5060348;28;20444;-78
2021/06/26 00:43:53;;;;;;;5.70;5.30;;;20.20;1.00;;;;;;5049415;28;20913;-78
2021/06/26 00:46:21;;;;;;;6.40;5.40;;;20.20;1.00;;;;;;5039564;28;20532;-77
2021/06/26 00:48:48;;;;;;;29.67;8.30;;;20.10;1.00;;;;;;5047938;28;20437;-78
2021/06/26 00:51:15;;;;;;;7.80;5.60;;;20.00;1.00;;;;;;5046484;28;20455;-77
2021/06/26 00:53:42;;;;;;;6.63;6.00;;;20.00;1.00;;;;;;5049921;28;20461;-78
2021/06/26 00:56:09;;;;;;;9.10;7.60;;;19.90;1.00;;;;;;5052775;28;20487;-78
2021/06/26 00:58:36;;;;;;;6.53;6.00;;;19.90;1.00;;;;;;5052463;28;20464;-77
2021/06/26 01:01:03;;;;;;;7.40;5.77;;;19.90;1.00;;;;;;5051665;28;20428;-78
2021/06/26 01:03:31;;;;;;;10.73;5.63;;;19.80;1.00;;;;;;5051167;28;20467;-78
2021/06/26 01:05:57;;;;;;;6.97;6.27;;;19.80;1.00;;;;;;5047132;28;21291;-77
2021/06/26 01:08:25;;;;;;;7.70;7.00;;;19.70;1.00;;;;;;5057733;28;20458;-78
2021/06/26 01:10:52;;;;;;;7.90;6.33;;;19.70;1.00;;;;;;5050586;28;20443;-77
2021/06/26 01:13:18;;;;;;;8.00;7.40;;;19.60;1.00;;;;;;5046031;28;20542;-76
2021/06/26 01:15:45;;;;;;;6.20;5.70;;;19.50;1.00;;;;;;5044673;28;20452;-77
2021/06/26 01:18:12;;;;;;;6.77;6.20;;;19.50;1.00;;;;;;5050450;28;20450;-77
2021/06/26 01:20:40;;;;;;;7.20;6.60;;;19.40;1.00;;;;;;5051918;28;20590;-77
2021/06/26 01:23:12;;;;;;;6.43;5.80;;;19.30;1.00;;;;;;5050218;28;20471;-76
2021/06/26 01:25:38;;;;;;;6.60;6.10;;;19.30;1.00;;;;;;5048176;28;20463;-77
2021/06/26 01:28:05;;;;;;;6.90;6.30;;;19.20;1.00;;;;;;5051940;28;20440;-77
2021/06/26 01:30:35;;;;;;;7.00;6.30;;;19.10;1.00;;;;;;5048530;28;20443;-77
2021/06/26 01:33:03;;;;;;;7.50;6.73;;;19.00;1.00;;;;;;5049898;28;20526;-77
2021/06/26 01:35:31;;;;;;;7.10;6.50;;;18.90;1.00;;;;;;5053389;28;20571;-77
2021/06/26 01:37:59;;;;;;;7.50;6.80;;;18.90;1.00;;;;;;5052146;28;20420;-77
2021/06/26 01:40:29;;;;;;;7.13;6.53;;;18.80;1.00;;;;;;5051343;28;20585;-76
2021/06/26 01:42:57;;;;;;;7.30;6.40;;;18.80;1.00;;;;;;5048860;28;20571;-77
2021/06/26 01:45:24;;;;;;;6.80;6.20;;;18.70;1.00;;;;;;5048764;28;20467;-77
2021/06/26 01:47:52;;;;;;;7.83;7.13;;;18.60;1.00;;;;;;5050099;28;21380;-76
2021/06/26 01:50:20;;;;;;;8.30;7.50;;;18.60;1.00;;;;;;5049744;28;21282;-76
2021/06/26 01:52:48;;;;;;;7.27;6.60;;;18.50;1.00;;;;;;5047492;28;20451;-78
2021/06/26 01:55:17;;;;;;;8.07;7.40;;;18.50;1.00;;;;;;5048801;28;20463;-77
2021/06/26 01:57:47;;;;;;;7.80;7.10;;;18.40;1.00;;;;;;5048779;28;21042;-76
2021/06/26 02:00:15;;;;;;;7.70;7.00;;;18.40;1.00;;;;;;5046240;28;20451;-76
2021/06/26 02:02:42;;;;;;;7.90;7.30;;;18.40;1.00;;;;;;5047893;28;20449;-76
2021/06/26 02:05:10;;;;;;;7.60;6.90;;;18.40;1.00;;;;;;5050533;28;20461;-77
2021/06/26 02:07:37;;;;;;;7.23;6.63;;;18.30;1.00;;;;;;5048935;28;20451;-77
2021/06/26 02:10:05;;;;;;;7.40;6.80;;;18.30;1.00;;;;;;5049480;28;20634;-78
2021/06/26 02:12:31;;;;;;;7.90;7.13;;;18.30;1.00;;;;;;5048683;28;20995;-78
2021/06/26 02:14:59;;;;;;;7.43;6.67;;;18.20;1.00;;;;;;5051143;28;20447;-78
2021/06/26 02:17:26;;;;;;;8.23;7.53;;;18.20;1.00;;;;;;5050662;28;20460;-78
2021/06/26 02:19:53;;;;;;;7.33;6.43;;;18.20;1.00;;;;;;5049697;28;20942;-78
2021/06/26 02:22:19;;;;;;;10.20;7.03;;;18.20;1.00;;;;;;5056122;28;20438;-78
2021/06/26 02:24:46;;;;;;;7.70;7.10;;;18.20;1.00;;;;;;5047646;28;20486;-78
2021/06/26 02:27:13;;;;;;;7.97;7.27;;;18.30;1.00;;;;;;5049052;28;21536;-78
2021/06/26 02:29:40;;;;;;;7.90;7.20;;;18.30;1.00;;;;;;5050303;28;20454;-78
2021/06/26 02:32:08;;;;;;;7.67;6.97;;;18.30;1.00;;;;;;5056271;28;20443;-78
2021/06/26 02:34:35;;;;;;;7.20;6.60;;;18.30;1.00;;;;;;5047695;28;20966;-77
2021/06/26 02:37:02;;;;;;;7.13;6.43;;;18.30;1.00;;;;;;5052317;28;20435;-77
2021/06/26 02:39:28;;;;;;;7.10;6.43;;;18.20;1.00;;;;;;5049660;28;20497;-77
2021/06/26 02:41:55;;;;;;;7.00;6.40;;;18.30;1.00;;;;;;5055228;28;20446;-77
2021/06/26 02:44:22;;;;;;;7.37;6.77;;;18.20;1.00;;;;;;5053043;28;20464;-76
2021/06/26 02:46:50;;;;;;;7.57;6.43;;;18.20;1.00;;;;;;5052180;28;21304;-77
2021/06/26 02:49:18;;;;;;;8.30;7.50;;;18.20;1.00;;;;;;5057927;28;22092;-76
2021/06/26 02:51:45;;;;;;;8.60;7.70;;;18.10;1.00;;;;;;5055404;28;21412;-77
2021/06/26 02:54:12;;;;;;;7.90;7.10;;;18.10;1.00;;;;;;5053619;28;20460;-76
2021/06/26 02:56:39;;;;;;;8.23;7.43;;;18.00;1.00;;;;;;5050153;28;20460;-75
2021/06/26 02:59:05;;;;;;;8.33;7.50;;;18.00;1.00;;;;;;5046642;28;21407;-76
2021/06/26 03:01:32;;;;;;;7.67;6.97;;;18.00;1.00;;;;;;5046603;28;20454;-76
2021/06/26 03:03:59;;;;;;;9.03;8.13;;;18.00;1.00;;;;;;5043543;28;21484;-77
2021/06/26 03:06:27;;;;;;;8.60;7.80;;;18.00;1.00;;;;;;5049911;28;21446;-76
2021/06/26 03:08:53;;;;;;;9.37;8.40;;;18.00;1.00;;;;;;5049165;28;20470;-76
2021/06/26 03:11:20;;;;;;;8.57;7.77;;;17.90;1.00;;;;;;5050848;28;20552;-77
2021/06/26 03:13:47;;;;;;;10.00;9.20;;;17.90;1.00;;;;;;5049165;28;20476;-76
2021/06/26 03:16:13;;;;;;;8.80;8.00;;;17.90;1.00;;;;;;5048988;28;20467;-76
2021/06/26 03:18:43;;;;;;;9.57;8.87;;;17.90;1.00;;;;;;5051105;28;20571;-77
2021/06/26 03:21:10;;;;;;;9.43;8.70;;;17.80;1.00;;;;;;5049704;28;20446;-76
2021/06/26 03:23:38;;;;;;;9.83;9.00;;;17.80;1.00;;;;;;5047242;28;20468;-76
2021/06/26 03:26:05;;;;;;;9.50;8.67;;;17.70;1.00;;;;;;5046672;28;20542;-77
2021/06/26 03:28:32;;;;;;;10.17;9.37;;;17.70;1.00;;;;;;5049038;28;20440;-76
2021/06/26 03:30:59;;;;;;;10.43;9.33;;;17.70;1.00;;;;;;5046500;28;20447;-76
2021/06/26 03:33:26;;;;;;;9.03;8.30;;;17.60;1.00;;;;;;5047726;28;20450;-76
2021/06/26 03:35:52;;;;;;;10.97;9.63;;;17.70;1.00;;;;;;5046485;28;20550;-77
2021/06/26 03:38:19;;;;;;;9.93;8.90;;;17.70;1.00;;;;;;5048927;28;20540;-77
2021/06/26 03:40:49;;;;;;;10.37;9.50;;;17.60;1.00;;;;;;5048868;28;21283;-77
2021/06/26 03:43:15;;;;;;;9.77;8.97;;;17.60;1.00;;;;;;5056413;28;20460;-78
2021/06/26 03:45:42;;;;;;;11.47;10.40;;;17.60;1.00;;;;;;5050980;28;20452;-78
2021/06/26 03:48:09;;;;;;;10.60;9.00;;;17.60;1.00;;;;;;5051300;28;21094;-77
2021/06/26 03:50:38;;;;;;;9.87;8.87;;;17.70;1.00;;;;;;5059825;28;20465;-76
2021/06/26 03:53:04;;;;;;;10.33;9.33;;;17.60;1.00;;;;;;5054899;28;20459;-76
2021/06/26 03:55:31;;;;;;;10.13;9.23;;;17.70;1.00;;;;;;5056187;28;20454;-76
2021/06/26 03:57:59;;;;;;;10.13;9.23;;;17.60;1.00;;;;;;5051529;28;21471;-76
2021/06/26 04:00:26;;;;;;;11.30;10.30;;;17.70;1.00;;;;;;5050115;28;20971;-77
2021/06/26 04:02:53;;;;;;;10.47;9.60;;;17.70;1.00;;;;;;5049977;28;20453;-77
2021/06/26 04:05:20;;;;;;;10.90;9.97;;;17.60;1.00;;;;;;5047486;28;20540;-78
2021/06/26 04:07:46;;;;;;;10.87;9.87;;;17.70;1.00;;;;;;5053838;28;20441;-77
2021/06/26 04:10:14;;;;;;;10.77;9.77;;;17.70;1.00;;;;;;5052815;28;20443;-77
2021/06/26 04:12:41;;;;;;;11.70;10.60;;;17.70;1.00;;;;;;5054231;28;20461;-78
2021/06/26 04:15:10;;;;;;;11.00;10.10;;;17.70;1.00;;;;;;5050103;28;20455;-77
2021/06/26 04:17:38;;;;;;;10.70;9.67;;;17.70;1.00;;;;;;5051756;28;21013;-78
2021/06/26 04:20:06;;;;;;;11.17;10.27;;;17.80;1.00;;;;;;5051578;28;20463;-77
2021/06/26 04:22:32;;;;;;;12.53;11.43;;;17.90;1.00;;;;;;5049989;28;20484;-77
2021/06/26 04:24:59;;;;;;;11.73;10.73;;;17.90;1.00;;;;;;5055257;28;20455;-77
2021/06/26 04:27:26;;;;;;;13.90;12.50;;;18.00;1.00;;;;;;5052943;28;20444;-77
2021/06/26 04:29:52;;;;;;;13.23;11.93;;;18.00;1.00;;;;;;5049968;28;20541;-77
2021/06/26 04:32:21;;;;;;;13.33;11.90;;;18.10;1.00;;;;;;5051659;28;21063;-77
2021/06/26 04:34:48;;;;;;;12.60;11.40;;;18.20;1.00;;;;;;5049088;28;20447;-77
2021/06/26 04:37:15;;;;;;;11.70;10.63;;;18.20;1.00;;;;;;5057009;28;20580;-77
2021/06/26 04:39:42;;;;;;;12.07;11.07;;;18.30;1.00;;;;;;5056330;28;20468;-77
2021/06/26 04:42:09;;;;;;;12.30;11.20;;;18.40;1.00;;;;;;5053845;28;20475;-77
2021/06/26 04:44:35;;;;;;;12.60;11.30;;;18.50;1.00;;;;;;5056176;28;20456;-77
2021/06/26 04:47:02;;;;;;;12.87;11.50;;;18.60;1.00;;;;;;5059540;28;20527;-77
2021/06/26 04:49:30;;;;;;;16.57;11.27;;;18.60;1.00;;;;;;5060876;28;20444;-78
2021/06/26 04:51:57;;;;;;;12.90;11.70;;;18.60;1.00;;;;;;5052342;28;21235;-77
2021/06/26 04:54:25;;;;;;;13.27;11.70;;;18.70;1.00;;;;;;5052264;28;20454;-77
2021/06/26 04:56:51;;;;;;;11.23;10.33;;;18.70;1.00;;;;;;5052577;28;20554;-77
2021/06/26 04:59:18;;;;;;;13.37;11.03;;;18.80;1.00;;;;;;5051039;28;20469;-78
2021/06/26 05:01:45;;;;;;;12.70;11.60;;;18.90;1.00;;;;;;5053144;28;21260;-78
2021/06/26 05:04:11;;;;;;;11.90;10.80;;;18.90;1.00;;;;;;5050284;28;20437;-77
2021/06/26 05:06:39;;;;;;;11.87;10.73;;;19.00;1.00;;;;;;5053904;28;20536;-77
2021/06/26 05:09:06;;;;;;;11.90;10.90;;;19.00;1.00;;;;;;5045752;28;21061;-77
2021/06/26 05:11:33;;;;;;;12.00;10.90;;;19.00;1.00;;;;;;5048213;28;20459;-77
2021/06/26 05:14:00;;;;;;;13.40;12.20;;;19.10;1.00;;;;;;5050082;28;20478;-77
2021/06/26 05:16:26;;;;;;;11.20;10.23;;;19.10;1.00;;;;;;5050264;28;21419;-77
2021/06/26 05:18:53;;;;;;;11.20;10.20;;;19.20;1.00;;;;;;5051912;28;20498;-77
2021/06/26 05:21:20;;;;;;;11.93;10.83;;;19.30;1.00;;;;;;5053262;28;21345;-78
2021/06/26 05:23:48;;;;;;;11.97;11.00;;;19.50;1.00;;;;;;5055015;28;20499;-77
2021/06/26 05:26:15;;;;;;;12.17;11.07;;;19.60;1.00;;;;;;5053764;28;20511;-78
2021/06/26 05:28:41;;;;;;;10.70;9.80;;;19.80;1.00;;;;;;5055907;28;20443;-78
2021/06/26 05:31:08;;;;;;;11.50;10.60;;;19.90;1.00;;;;;;5051864;28;20449;-78
2021/06/26 05:33:35;;;;;;;11.10;10.00;;;20.00;1.00;;;;;;5052564;28;20953;-78
2021/06/26 05:36:02;;;;;;;13.40;10.47;;;20.10;1.00;;;;;;5056722;28;21302;-78
2021/06/26 05:38:29;;;;;;;10.30;9.40;;;20.10;1.00;;;;;;5053148;28;20472;-78
2021/06/26 05:40:57;;;;;;;9.77;8.97;;;20.20;1.00;;;;;;5053494;28;20871;-78
2021/06/26 05:43:23;;;;;;;9.50;8.60;;;20.40;1.00;;;;;;5054850;28;20459;-78
2021/06/26 05:45:50;;;;;;;9.43;8.43;;;20.40;1.00;;;;;;5048636;28;20464;-78
2021/06/26 05:48:16;;;;;;;9.93;8.93;;;20.50;1.00;;;;;;5056064;28;20460;-78
2021/06/26 05:50:43;;;;;;;10.17;9.27;;;20.60;1.00;;;;;;5052082;28;21485;-77
2021/06/26 05:53:10;;;;;;;9.60;8.87;;;20.60;1.00;;;;;;5050602;28;21038;-78
2021/06/26 05:55:37;;;;;;;9.60;8.70;;;20.70;1.00;;;;;;5049810;28;20570;-78
2021/06/26 05:58:05;;;;;;;9.13;8.30;;;20.70;1.00;;;;;;5052188;28;20535;-78
2021/06/26 06:00:33;;;;;;;10.03;9.23;;;20.80;1.00;;;;;;5052884;28;20451;-78
2021/06/26 06:03:02;;;;;;;9.63;8.73;;;20.90;1.00;;;;;;5052496;28;21123;-78
2021/06/26 06:05:29;;;;;;;9.30;8.60;;;21.00;1.00;;;;;;5054592;28;20637;-78
2021/06/26 06:07:55;;;;;;;10.10;9.30;;;21.10;1.00;;;;;;5051480;28;20449;-79
2021/06/26 06:10:22;;;;;;;10.33;9.20;;;21.10;1.00;;;;;;5063252;28;20448;-78
2021/06/26 06:12:49;;;;;;;12.73;11.73;;;21.20;1.00;;;;;;5065644;28;20449;-78
2021/06/26 06:15:17;;;;;;;9.33;8.53;;;21.20;1.00;;;;;;5063013;28;20657;-77
2021/06/26 06:17:43;;;;;;;9.40;8.50;;;21.20;1.00;;;;;;5069699;28;20442;-77
2021/06/26 06:20:11;;;;;;;9.83;9.13;;;21.30;1.00;;;;;;5061820;28;20472;-77
2021/06/26 06:22:39;;;;;;;9.23;8.40;;;21.40;1.00;;;;;;5059496;28;20452;-78
2021/06/26 06:25:10;;;;;;;10.47;9.57;;;21.40;1.00;;;;;;5060054;28;20447;-78
2021/06/26 06:27:40;;;;;;;10.53;9.60;;;21.40;1.00;;;;;;5058036;28;20445;-78
2021/06/26 06:30:08;;;;;;;10.17;8.97;;;21.50;1.00;;;;;;5059803;28;20556;-78
2021/06/26 06:32:36;;;;;;;10.07;9.17;;;21.50;1.00;;;;;;5070174;28;20529;-77
2021/06/26 06:35:02;;;;;;;10.17;9.27;;;21.40;1.00;;;;;;5057717;28;20443;-78
2021/06/26 06:37:29;;;;;;;10.37;9.27;;;21.30;1.00;;;;;;5065214;28;20459;-78
2021/06/26 06:39:56;;;;;;;9.17;8.27;;;21.40;1.00;;;;;;5060589;28;20472;-78
2021/06/26 06:42:22;;;;;;;10.23;9.33;;;21.50;1.00;;;;;;5069879;28;20557;-78
2021/06/26 06:44:49;;;;;;;11.53;9.47;;;21.50;1.00;;;;;;5065839;28;20460;-78
2021/06/26 06:47:16;;;;;;;10.00;9.20;;;21.50;1.00;;;;;;5069422;28;20443;-77
2021/06/26 06:49:44;;;;;;;10.30;9.40;;;21.50;1.00;;;;;;5057270;28;20452;-78
2021/06/26 06:52:10;;;;;;;9.37;8.50;;;21.60;1.00;;;;;;5058864;28;20465;-78
2021/06/26 06:54:37;;;;;;;9.83;8.70;;;21.60;1.00;;;;;;5059008;28;21037;-78
2021/06/26 06:57:04;;;;;;;9.73;8.83;;;21.70;1.00;;;;;;5056545;28;21352;-77
2021/06/26 06:59:31;;;;;;;9.50;8.60;;;21.60;1.00;;;;;;5054178;28;20496;-77
2021/06/26 07:01:58;;;;;;;8.97;8.17;;;21.60;1.00;;;;;;5053052;28;20405;-78
2021/06/26 07:04:25;;;;;;;9.63;8.83;;;21.60;1.00;;;;;;5053210;28;20491;-77
2021/06/26 07:06:53;;;;;;;10.20;9.40;;;21.60;1.00;;;;;;5053646;28;20457;-78
2021/06/26 07:09:20;;;;;;;10.07;9.10;;;21.70;1.00;;;;;;5052987;28;20464;-79
2021/06/26 07:11:47;;;;;;;9.47;8.57;;;21.80;1.00;;;;;;5054970;28;20455;-78
2021/06/26 07:14:14;;;;;;;10.73;9.00;;;21.80;1.00;;;;;;5052435;28;20461;-78
2021/06/26 07:16:41;;;;;;;8.60;7.80;;;21.90;1.00;;;;;;5058847;28;20485;-78
2021/06/26 07:19:07;;;;;;;8.87;8.07;;;22.00;1.00;;;;;;5051563;28;20474;-78
2021/06/26 07:21:34;;;;;;;9.33;8.53;;;22.10;1.00;;;;;;5053237;28;20473;-78
2021/06/26 07:24:02;;;;;;;8.67;8.00;;;22.20;1.00;;;;;;5048442;28;20991;-79
2021/06/26 07:26:28;;;;;;;9.27;8.53;;;22.20;1.00;;;;;;5052994;28;20453;-78
2021/06/26 07:28:55;;;;;;;7.00;6.30;;;22.20;1.00;;;;;;5050236;28;20557;-78
2021/06/26 07:31:22;;;;;;;7.37;6.77;;;22.20;1.00;;;;;;5051450;28;20461;-78
2021/06/26 07:33:48;;;;;;;6.67;6.17;;;22.30;1.00;;;;;;5056495;28;20467;-76
2021/06/26 07:36:15;;;;;;;7.20;5.93;;;22.40;1.00;;;;;;5049336;28;20932;-77
2021/06/26 07:38:42;;;;;;;7.30;6.33;;;22.40;1.00;;;;;;5053063;28;20473;-79
2021/06/26 07:41:10;;;;;;;8.13;7.10;;;22.30;1.00;;;;;;5052156;28;21060;-79
2021/06/26 07:43:36;;;;;;;6.70;6.10;;;22.40;1.00;;;;;;5053094;28;20522;-77
2021/06/26 07:46:04;;;;;;;8.17;7.40;;;22.50;1.00;;;;;;5047994;28;20999;-76
2021/06/26 07:48:31;;;;;;;8.23;7.53;;;22.70;1.00;;;;;;5050796;28;20486;-76
2021/06/26 07:50:58;;;;;;;6.87;6.30;;;22.90;1.00;;;;;;5048966;28;20461;-78
2021/06/26 07:53:25;;;;;;;8.20;7.40;;;22.80;1.00;;;;;;5050520;28;20468;-77
2021/06/26 07:55:53;;;;;;;7.73;6.93;;;22.90;1.00;;;;;;5049786;28;20524;-77
2021/06/26 07:58:22;;;;;;;7.33;6.63;;;23.10;1.00;;;;;;5055609;28;20465;-77
2021/06/26 08:00:49;;;;;;;7.80;6.80;;;23.30;1.00;;;;;;5048484;28;20471;-77
2021/06/26 08:03:16;;;;;;;6.80;6.30;;;23.50;1.00;;;;;;5051934;28;20571;-77
2021/06/26 08:05:44;;;;;;;7.83;7.23;;;23.70;1.00;;;;;;5049102;28;20442;-79
2021/06/26 08:08:11;;;;;;;10.30;9.30;;;23.70;1.00;;;;;;5050548;28;20463;-77
2021/06/26 08:10:38;;;;;;;7.53;6.50;;;23.50;1.00;;;;;;5049836;28;20453;-77
2021/06/26 08:13:05;;;;;;;7.13;6.50;;;23.50;1.00;;;;;;5047264;28;21306;-78
2021/06/26 08:15:36;;;;;;;6.63;6.13;;;23.50;1.00;;;;;;5049646;28;20961;-77
2021/06/26 08:18:02;;;;;;;7.20;6.50;;;23.60;1.00;;;;;;5056200;28;20534;-76
2021/06/26 08:20:29;;;;;;;7.63;6.93;;;23.70;1.00;;;;;;5050719;28;20435;-77
2021/06/26 08:22:56;;;;;;;8.07;7.27;;;24.00;1.00;;;;;;5053229;28;20463;-78
2021/06/26 08:25:23;;;;;;;11.03;7.80;;;24.30;1.00;;;;;;5052108;28;20448;-77
2021/06/26 08:27:49;;;;;;;6.93;6.43;;;24.60;1.00;;;;;;5058557;28;22983;-77
2021/06/26 08:30:17;;;;;;;7.07;6.47;;;24.90;1.00;;;;;;5052785;28;21349;-77
2021/06/26 08:32:45;;;;;;;6.97;6.20;;;25.00;1.00;;;;;;5056810;28;20444;-77
2021/06/26 08:35:13;;;;;;;7.90;7.17;;;25.00;1.00;;;;;;5059353;28;21049;-79
2021/06/26 08:37:42;;;;;;;7.47;6.97;;;24.90;1.00;;;;;;5063813;28;20533;-78
2021/06/26 08:40:10;;;;;;;6.20;5.60;;;24.80;1.00;;;;;;5063879;28;20432;-79
2021/06/26 08:42:37;;;;;;;7.23;6.50;;;25.00;1.00;;;;;;5063809;28;20449;-80
2021/06/26 08:45:08;;;;;;;6.47;5.97;;;25.20;1.00;;;;;;5066509;28;20441;-78
2021/06/26 08:47:35;;;;;;;7.57;6.87;;;25.30;1.00;;;;;;5054167;28;20471;-79
2021/06/26 08:50:04;;;;;;;6.40;5.90;;;25.30;1.00;;;;;;5060405;28;20463;-79
2021/06/26 08:52:30;;;;;;;6.70;6.20;;;25.50;1.00;;;;;;5056501;28;21257;-79
2021/06/26 08:54:57;;;;;;;7.40;6.80;;;25.60;1.00;;;;;;5059822;28;20447;-77
2021/06/26 08:57:29;;;;;;;8.00;7.40;;;25.80;1.00;;;;;;5058705;28;20454;-81
2021/06/26 08:59:58;;;;;;;6.90;6.30;;;25.90;1.00;;;;;;5053524;28;20479;-79
2021/06/26 09:02:25;;;;;;;7.23;6.63;;;25.80;1.00;;;;;;5060925;28;20530;-84
2021/06/26 09:04:52;;;;;;;8.43;6.83;;;25.70;1.00;;;;;;5061772;28;20427;-83
2021/06/26 09:07:29;;;;;;;7.50;6.80;;;25.60;1.00;;;;;;5062882;28;20437;-81
2021/06/26 09:09:56;;;;;;;7.47;6.70;;;25.70;1.00;;;;;;5056232;28;20797;-84
2021/06/26 09:12:26;;;;;;;6.40;5.90;;;25.90;1.00;;;;;;5055776;28;20483;-83
2021/06/26 09:14:53;;;;;;;7.40;6.80;;;25.90;1.00;;;;;;5057330;28;20582;-82
2021/06/26 09:17:32;;;;;;;6.47;5.80;;;25.80;1.00;;;;;;5060295;28;22129;-83
2021/06/26 09:20:03;;;;;;;6.70;6.17;;;25.90;1.00;;;;;;5059764;28;21370;-84
2021/06/26 09:22:38;;;;;;;5.97;5.47;;;26.00;1.00;;;;;;5056793;28;20962;-83
2021/06/26 09:25:06;;;;;;;7.50;6.90;;;26.20;1.00;;;;;;5068366;28;21029;-82
2021/06/26 09:27:34;;;;;;;6.90;6.40;;;26.40;1.00;;;;;;5054631;28;20574;-83
2021/06/26 09:30:01;;;;;;;6.70;6.20;;;26.50;1.00;;;;;;5052851;28;20442;-84
2021/06/26 09:32:30;;;;;;;6.63;5.93;;;26.60;1.00;;;;;;5059153;28;20461;-82
2021/06/26 09:34:58;;;;;;;6.93;6.23;;;26.80;1.00;;;;;;5063878;28;20477;-85
2021/06/26 09:37:27;;;;;;;8.23;7.63;;;26.90;1.00;;;;;;5057897;28;20469;-83
2021/06/26 09:39:57;;;;;;;6.20;5.70;;;26.90;1.00;;;;;;5057156;28;20552;-80
2021/06/26 09:42:25;;;;;;;6.70;6.20;;;26.80;1.00;;;;;;5064295;28;20424;-77
2021/06/26 09:44:54;;;;;;;6.27;5.67;;;26.70;1.00;;;;;;5080318;28;20432;-83
2021/06/26 09:47:33;;;;;;;6.70;6.10;;;26.70;1.00;;;;;;5069716;28;20428;-85
2021/06/26 09:50:14;;;;;;;5.63;5.23;;;27.70;1.00;;;;;;5064875;28;20418;-84
2021/06/26 09:52:43;;;;;;;6.50;5.90;;;29.60;1.00;;;;;;5063356;28;21364;-85
2021/06/26 09:55:24;;;;;;;5.93;5.10;;;30.90;1.00;;;;;;5056372;28;20469;-84
2021/06/26 09:57:53;;;;;;;6.10;5.70;;;32.40;1.00;;;;;;5057745;28;20928;-84
2021/06/26 10:00:22;;;;;;;5.80;5.30;;;33.40;1.00;;;;;;5065729;28;20499;-86
2021/06/26 10:02:49;;;;;;;5.70;5.20;;;33.80;1.00;;;;;;5057115;28;20452;-85
2021/06/26 10:05:16;;;;;;;6.00;5.43;;;34.40;1.00;;;;;;5056374;28;21327;-84
2021/06/26 10:07:45;;;;;;;4.80;4.40;;;35.10;1.00;;;;;;5060754;28;20535;-84
2021/06/26 10:10:14;;;;;;;5.67;5.10;;;35.70;1.00;;;;;;5056669;28;21038;-85
2021/06/26 10:12:43;;;;;;;6.03;5.53;;;36.00;1.00;;;;;;5074064;28;20446;-86
2021/06/26 10:15:12;;;;;;;5.60;5.10;;;35.90;1.00;;;;;;5055017;28;20447;-85
2021/06/26 10:17:39;;;;;;;8.57;6.33;;;34.70;1.00;;;;;;5057652;28;20464;-85
2021/06/26 10:20:08;;;;;;;6.30;5.57;;;32.70;1.00;;;;;;5068121;28;20461;-83
2021/06/26 10:22:37;;;;;;;6.10;5.60;;;31.40;1.00;;;;;;5065976;28;20458;-85
2021/06/26 10:25:05;;;;;;;6.80;6.27;;;30.50;1.00;;;;;;5064150;28;20500;-86
2021/06/26 10:27:32;;;;;;;6.90;6.40;;;30.00;1.00;;;;;;5071320;28;20421;-86
2021/06/26 10:30:15;;;;;;;6.83;6.23;;;29.50;1.00;;;;;;5073989;28;20436;-84
2021/06/26 10:33:00;;;;;;;6.03;5.53;;;29.20;1.00;;;;;;5069604;28;20461;-84
2021/06/26 10:35:29;;;;;;;6.77;5.70;;;28.70;1.00;;;;;;5071211;28;20455;-83
2021/06/26 10:38:08;;;;;;;6.00;5.50;;;28.30;1.00;;;;;;5075723;28;20549;-83
2021/06/26 10:40:43;;;;;;;5.50;5.10;;;28.00;1.00;;;;;;5076300;28;20469;-83
2021/06/26 10:43:19;;;;;;;5.73;5.23;;;27.60;1.00;;;;;;5077471;28;20422;-83
2021/06/26 10:45:49;;;;;;;6.33;5.80;;;27.40;1.00;;;;;;5078132;27;20431;-83
2021/06/26 10:48:21;;;;;;;6.00;5.50;;;27.50;1.00;;;;;;5069445;28;20473;-83
2021/06/26 10:50:51;;;;;;;8.13;5.33;;;28.30;1.00;;;;;;5075129;28;20426;-84
2021/06/26 10:53:32;;;;;;;5.60;5.20;;;30.30;1.00;;;;;;5074600;28;20495;-82
2021/06/26 10:56:08;;;;;;;7.30;6.17;;;32.20;1.00;;;;;;5068695;28;20562;-83
2021/06/26 10:58:37;;;;;;;5.87;5.50;;;33.70;1.00;;;;;;5073059;28;20492;-83
2021/06/26 11:01:16;;;;;;;5.77;5.27;;;34.80;1.00;;;;;;5081205;28;20420;-84
2021/06/26 11:03:44;;;;;;;6.17;5.60;;;35.60;1.00;;;;;;5065272;28;20472;-83
2021/06/26 11:06:19;;;;;;;4.20;3.90;;;36.20;1.00;;;;;;5072535;28;20456;-82
2021/06/26 11:09:01;;;;;;;4.90;4.60;;;36.60;1.00;;;;;;5066875;28;21172;-84
2021/06/26 11:11:30;;;;;;;3.70;3.27;;;37.30;1.00;;;;;;5068318;28;20438;-83
2021/06/26 11:14:07;;;;;;;4.07;3.77;;;37.90;1.00;;;;;;5070178;28;20455;-84
2021/06/26 11:16:36;;;;;;;4.63;4.23;;;38.40;1.00;;;;;;5070030;28;20547;-84
2021/06/26 11:19:03;;;;;;;4.40;4.10;;;39.00;1.00;;;;;;5085870;28;20468;-84
2021/06/26 11:21:37;;;;;;;4.10;3.80;;;39.40;1.00;;;;;;5067744;28;20758;-84
2021/06/26 11:24:04;;;;;;;4.23;3.93;;;39.70;1.00;;;;;;5069851;28;20439;-83
2021/06/26 11:26:31;;;;;;;4.63;4.23;;;40.00;1.00;;;;;;5056854;28;20439;-84
2021/06/26 11:28:58;;;;;;;4.00;3.70;;;40.30;1.00;;;;;;5062046;28;20580;-84
2021/06/26 11:31:24;;;;;;;5.23;4.87;;;40.50;1.00;;;;;;5069753;28;20463;-84
2021/06/26 11:33:52;;;;;;;3.80;3.50;;;40.40;1.00;;;;;;5063108;28;20463;-83
2021/06/26 11:36:19;;;;;;;6.20;4.07;;;40.30;1.00;;;;;;5073021;28;20547;-81
2021/06/26 11:38:46;;;;;;;4.23;3.93;;;40.10;1.00;;;;;;5057836;28;20467;-81
2021/06/26 11:41:14;;;;;;;4.03;3.63;;;40.20;1.00;;;;;;5061402;28;20468;-83
2021/06/26 11:43:49;;;;;;;5.73;5.20;;;40.70;1.00;;;;;;5062164;28;20464;-82
2021/06/26 11:46:16;;;;;;;4.20;3.90;;;41.00;1.00;;;;;;5060909;28;20445;-82
2021/06/26 11:48:45;;;;;;;3.73;3.47;;;40.40;1.00;;;;;;5069022;28;20555;-81
2021/06/26 11:51:14;;;;;;;4.20;3.90;;;39.00;1.00;;;;;;5062061;28;20441;-81
2021/06/26 11:53:43;;;;;;;4.50;3.90;;;38.40;1.00;;;;;;5067379;28;20414;-82
2021/06/26 11:56:14;;;;;;;4.50;4.20;;;38.10;1.00;;;;;;5063898;28;20534;-80
2021/06/26 11:58:43;;;;;;;4.70;4.30;;;36.90;1.00;;;;;;5062279;28;20466;-81
2021/06/26 12:01:11;;;;;;;4.47;4.17;;;35.60;1.00;;;;;;5059324;28;20451;-81
2021/06/26 12:03:38;;;;;;;4.27;3.97;;;34.30;1.00;;;;;;5067101;28;20432;-79
2021/06/26 12:06:06;;;;;;;4.10;3.80;;;33.20;1.00;;;;;;5063663;28;20514;-80
2021/06/26 12:08:42;;;;;;;4.30;3.90;;;32.40;1.00;;;;;;5066712;28;20464;-80
2021/06/26 12:11:11;;;;;;;12.43;11.33;;;32.10;1.00;;;;;;5087830;28;21318;-80
2021/06/26 12:13:38;;;;;;;4.10;3.70;;;31.60;1.00;;;;;;5072631;28;20441;-80
2021/06/26 12:16:05;;;;;;;4.03;3.63;;;31.80;1.00;;;;;;5072327;28;20943;-80
2021/06/26 12:18:32;;;;;;;4.93;4.47;;;33.20;1.00;;;;;;5075569;28;20491;-78
2021/06/26 12:20:58;;;;;;;4.27;3.90;;;33.90;1.00;;;;;;5067559;28;20478;-79
2021/06/26 12:23:25;;;;;;;3.60;3.30;;;34.20;1.00;;;;;;5070591;28;20509;-80
2021/06/26 12:25:53;;;;;;;5.23;3.87;;;35.80;1.00;;;;;;5066956;28;20574;-80
2021/06/26 12:28:22;;;;;;;3.37;2.70;;;37.40;1.00;;;;;;5072020;28;20619;-80
2021/06/26 12:30:48;;;;;;;4.00;3.70;;;38.80;1.00;;;;;;5068721;28;20443;-78
2021/06/26 12:33:16;;;;;;;3.30;3.10;;;39.80;1.00;;;;;;5067791;28;20436;-80
2021/06/26 12:35:43;;;;;;;3.10;2.80;;;39.90;1.00;;;;;;5076644;28;20403;-80
2021/06/26 12:38:10;;;;;;;2.73;2.53;;;39.80;1.00;;;;;;5074337;28;20443;-80
2021/06/26 12:40:42;;;;;;;2.87;2.40;;;40.10;1.00;;;;;;5073640;28;20455;-79
2021/06/26 12:43:12;;;;;;;2.30;2.10;;;40.70;1.00;;;;;;5073896;28;20485;-80
2021/06/26 12:45:42;;;;;;;4.00;2.63;;;40.60;1.00;;;;;;5086106;28;20404;-78
2021/06/26 12:48:12;;;;;;;2.50;2.30;;;40.50;1.00;;;;;;5085846;28;20678;-81
2021/06/26 12:51:03;;;;;;;3.47;2.67;;;40.90;1.00;;;;;;5079849;28;20428;-79
2021/06/26 12:53:35;;;;;;;4.50;4.23;;;41.50;1.00;;;;;;5076979;28;21124;-79
2021/06/26 12:56:07;;;;;;;2.20;2.10;;;42.00;1.00;;;;;;5065427;28;20512;-79
2021/06/26 12:58:36;;;;;;;2.70;2.50;;;41.70;1.00;;;;;;5067347;28;20457;-78